Time;durP1;ratioP1;P1;durP2;ratioP2;P2;SDS_P1;SDS_P2;PMS_P1;PMS_P2;Temp;Humidity;BMP_temperature;BMP_pressure;BME280_temperature;BME280_humidity;BME280_pressure;Samples;Min_cycle;Max_cycle;Signal;HPM_P1;HPM_P2
2023/04/20 00:00:40;;;;;;;;;;;;;;;-144.99;69.16;52354.34;5052946;28;19925;-65
2023/04/20 00:03:08;;;;;;;;;;;;;;;-144.99;69.55;52358.41;5067057;28;20443;-64
2023/04/20 00:05:36;;;;;;;;;;;;;;;-144.99;70.33;52346.19;5062264;28;19925;-65
2023/04/20 00:08:03;;;;;;;;;;;;;;;-144.99;70.66;52356.38;5067788;28;19954;-66
2023/04/20 00:10:30;;;;;;;;;;;;;;;-144.99;70.96;52321.72;5067806;28;19928;-65
2023/04/20 00:12:57;;;;;;;;;;;;;;;-144.99;70.23;52329.88;5065174;28;19924;-66
2023/04/20 00:15:24;;;;;;;;;;;;;;;-144.99;69.63;52358.41;5058657;28;19929;-65
2023/04/20 00:17:51;;;;;;;;;;;;;;;-144.99;68.46;52346.19;5054116;28;20114;-64
2023/04/20 00:20:18;;;;;;;;;;;;;;;-144.99;68.59;52378.78;5050179;28;20273;-65
2023/04/20 00:22:44;;;;;;;;;;;;;;;-144.99;68.30;52356.38;5064348;28;19929;-65
2023/04/20 00:25:11;;;;;;;;;;;;;;;-144.99;68.17;52354.34;5065077;28;20106;-65
2023/04/20 00:27:38;;;;;;;;;;;;;;;-144.99;67.38;52362.50;5048659;28;20026;-64
2023/04/20 00:30:06;;;;;;;;;;;;;;;-144.99;67.59;52333.94;5054633;28;19925;-64
2023/04/20 00:32:32;;;;;;;;;;;;;;;-144.99;67.31;52342.09;5047821;28;20408;-64
2023/04/20 00:34:59;;;;;;;;;;;;;;;-144.99;66.97;52329.88;5056631;28;19924;-64
2023/04/20 00:37:26;;;;;;;;;;;;;;;-144.99;67.05;52327.84;5053217;28;19925;-64
2023/04/20 00:39:52;;;;;;;;;;;;;;;-144.99;66.93;52336.00;5059896;28;19932;-64
2023/04/20 00:42:19;;;;;;;;;;;;;;;-144.99;66.85;52366.56;5053801;28;20385;-64
2023/04/20 00:44:47;;;;;;;;;;;;;;;-144.99;66.79;52325.81;5052697;28;19932;-65
2023/04/20 00:47:13;;;;;;;;;;;;;;;-144.99;66.49;52356.38;5051574;28;19978;-70
2023/04/20 00:49:40;;;;;;;;;;;;;;;-144.99;66.61;52344.16;5054201;28;20166;-71
2023/04/20 00:52:06;;;;;;;;;;;;;;;-144.99;66.69;52362.50;5058200;28;19967;-70
2023/04/20 00:54:33;;;;;;;;;;;;;;;-144.99;66.67;52325.81;5064393;28;20470;-71
2023/04/20 00:57:00;;;;;;;;;;;;;;;-144.99;67.00;52311.53;5054042;28;19940;-67
2023/04/20 00:59:26;;;;;;;;;;;;;;;-144.99;67.24;52344.16;5051808;28;19928;-71
2023/04/20 01:01:54;;;;;;;;;;;;;;;-144.99;67.55;52333.94;5057027;28;19956;-70
2023/04/20 01:04:21;;;;;;;;;;;;;;;-144.99;68.07;52350.25;5061365;28;19980;-67
2023/04/20 01:06:48;;;;;;;;;;;;;;;-144.99;68.62;52342.09;5058334;28;19972;-67
2023/04/20 01:09:14;;;;;;;;;;;;;;;-144.99;68.73;52342.09;5059728;28;20529;-66
2023/04/20 01:11:41;;;;;;;;;;;;;;;-144.99;68.31;52301.34;5065722;28;19925;-66
2023/04/20 01:14:07;;;;;;;;;;;;;;;-144.99;68.27;52309.50;5065876;28;19932;-65
2023/04/20 01:16:35;;;;;;;;;;;;;;;-144.99;68.63;52350.25;5064235;28;19958;-64
2023/04/20 01:19:03;;;;;;;;;;;;;;;-144.99;69.21;52364.53;5062182;28;19933;-65
2023/04/20 01:21:29;;;;;;;;;;;;;;;-144.99;68.68;52333.94;5056079;28;19933;-64
2023/04/20 01:23:58;;;;;;;;;;;;;;;-144.99;68.62;52319.69;5062470;28;19928;-65
2023/04/20 01:26:24;;;;;;;;;;;;;;;-144.99;69.04;52370.63;5060734;28;19940;-64
2023/04/20 01:28:51;;;;;;;;;;;;;;;-144.99;69.69;52325.81;5050739;28;19959;-63
2023/04/20 01:31:17;;;;;;;;;;;;;;;-144.99;70.26;52342.09;5065594;28;19925;-63
2023/04/20 01:33:44;;;;;;;;;;;;;;;-144.99;70.77;52325.81;5050270;28;19928;-64
2023/04/20 01:36:11;;;;;;;;;;;;;;;-144.99;71.01;52305.41;5055651;28;19925;-64
2023/04/20 01:38:38;;;;;;;;;;;;;;;-144.99;70.80;52331.91;5051272;28;19925;-64
2023/04/20 01:41:06;;;;;;;;;;;;;;;-144.99;71.44;52354.34;5053545;28;19929;-64
2023/04/20 01:43:33;;;;;;;;;;;;;;;-144.99;71.10;52329.88;5050646;28;19932;-64
2023/04/20 01:46:01;;;;;;;;;;;;;;;-144.99;71.10;52313.56;5049565;28;19979;-67
2023/04/20 01:48:27;;;;;;;;;;;;;;;-144.99;70.53;52354.34;5053022;28;19982;-64
2023/04/20 01:50:54;;;;;;;;;;;;;;;-144.99;71.00;52352.28;5047765;28;19982;-64
2023/04/20 01:53:20;;;;;;;;;;;;;;;-144.99;71.05;52352.28;5057341;28;19971;-64
2023/04/20 01:55:47;;;;;;;;;;;;;;;-144.99;71.21;52325.81;5052537;28;19925;-64
2023/04/20 01:58:15;;;;;;;;;;;;;;;-144.99;71.28;52370.63;5051656;28;20608;-64
2023/04/20 02:00:42;;;;;;;;;;;;;;;-144.99;70.74;52356.38;5051322;28;19932;-63
2023/04/20 02:03:09;;;;;;;;;;;;;;;-144.99;70.53;52346.19;5051245;28;19925;-64
2023/04/20 02:05:35;;;;;;;;;;;;;;;-144.99;70.75;52333.94;5057397;28;19931;-66
2023/04/20 02:08:02;;;;;;;;;;;;;;;-144.99;71.25;52321.72;5058164;28;20297;-65
2023/04/20 02:10:28;;;;;;;;;;;;;;;-144.99;72.01;52309.50;5064042;28;19924;-66
2023/04/20 02:12:55;;;;;;;;;;;;;;;-144.99;72.60;52331.91;5055576;28;19929;-65
2023/04/20 02:15:23;;;;;;;;;;;;;;;-144.99;73.60;52338.03;5050162;28;19986;-66
2023/04/20 02:17:51;;;;;;;;;;;;;;;-144.99;73.43;52331.91;5060447;28;19970;-63
2023/04/20 02:20:18;;;;;;;;;;;;;;;-144.99;73.96;52325.81;5049700;28;19939;-63
2023/04/20 02:22:44;;;;;;;;;;;;;;;-144.99;75.77;52297.25;5052161;28;20209;-63
2023/04/20 02:25:11;;;;;;;;;;;;;;;-144.99;77.13;52338.03;5061217;28;19990;-70
2023/04/20 02:27:38;;;;;;;;;;;;;;;-144.99;77.88;52301.34;5049483;28;19980;-69
2023/04/20 02:30:05;;;;;;;;;;;;;;;-144.99;78.83;52374.72;5054758;28;19993;-69
2023/04/20 02:32:33;;;;;;;;;;;;;;;-144.99;78.98;52340.06;5060457;28;19929;-68
2023/04/20 02:35:00;;;;;;;;;;;;;;;-144.99;79.33;52317.66;5055843;28;19933;-65
2023/04/20 02:37:27;;;;;;;;;;;;;;;-144.99;79.10;52323.75;5049830;28;19929;-66
2023/04/20 02:39:53;;;;;;;;;;;;;;;-144.99;79.07;52329.88;5060770;28;19933;-67
2023/04/20 02:42:20;;;;;;;;;;;;;;;-144.99;79.58;52360.44;5053465;28;19925;-67
2023/04/20 02:44:46;;;;;;;;;;;;;;;-144.99;79.48;52366.56;5049845;28;19968;-68
2023/04/20 02:47:13;;;;;;;;;;;;;;;-144.99;80.33;52358.41;5049937;28;19937;-68
2023/04/20 02:49:41;;;;;;;;;;;;;;;-144.99;80.82;52352.28;5064563;28;20297;-68
2023/04/20 02:52:07;;;;;;;;;;;;;;;-144.99;81.58;52362.50;5062358;28;20297;-68
2023/04/20 02:54:34;;;;;;;;;;;;;;;-144.99;81.86;52329.88;5055790;28;19990;-68
2023/04/20 02:57:02;;;;;;;;;;;;;;;-144.99;82.40;52346.19;5051540;28;19936;-67
2023/04/20 02:59:28;;;;;;;;;;;;;;;-144.99;82.06;52348.22;5049509;28;19924;-67
2023/04/20 03:01:55;;;;;;;;;;;;;;;-144.99;81.46;52346.19;5049927;28;19929;-68
2023/04/20 03:04:21;;;;;;;;;;;;;;;-144.99;80.91;52370.63;5054035;28;19986;-67
2023/04/20 03:06:50;;;;;;;;;;;;;;;-144.99;81.08;52313.56;5057302;28;19932;-63
2023/04/20 03:09:17;;;;;;;;;;;;;;;-144.99;82.35;52321.72;5061296;28;19925;-64
2023/04/20 03:11:44;;;;;;;;;;;;;;;-144.99;81.68;52321.72;5061793;28;19928;-64
2023/04/20 03:14:11;;;;;;;;;;;;;;;-144.99;80.96;52333.94;5057082;28;19933;-64
2023/04/20 03:16:37;;;;;;;;;;;;;;;-144.99;81.09;52313.56;5057168;28;20272;-64
2023/04/20 03:19:04;;;;;;;;;;;;;;;-144.99;81.03;52307.47;5064196;28;19979;-63
2023/04/20 03:21:31;;;;;;;;;;;;;;;-144.99;81.05;52333.94;5061638;28;20318;-65
2023/04/20 03:24:00;;;;;;;;;;;;;;;-144.99;81.08;52329.88;5050727;28;19924;-64
2023/04/20 03:26:26;;;;;;;;;;;;;;;-144.99;81.21;52307.47;5047326;28;19968;-65
2023/04/20 03:28:53;;;;;;;;;;;;;;;-144.99;81.15;52317.66;5061997;28;19933;-65
2023/04/20 03:31:20;;;;;;;;;;;;;;;-144.99;82.26;52268.72;5056273;28;19924;-65
2023/04/20 03:33:46;;;;;;;;;;;;;;;-144.99;81.48;52295.22;5051247;28;19951;-65
2023/04/20 03:36:13;;;;;;;;;;;;;;;-144.99;81.33;52293.19;5050372;28;19991;-65
2023/04/20 03:38:39;;;;;;;;;;;;;;;-144.99;81.46;52297.25;5056918;28;20320;-65
2023/04/20 03:41:08;;;;;;;;;;;;;;;-144.99;81.61;52301.34;5051389;28;20066;-65
2023/04/20 03:43:34;;;;;;;;;;;;;;;-144.99;83.11;52321.72;5054099;28;20023;-64
2023/04/20 03:46:01;;;;;;;;;;;;;;;-144.99;83.98;52321.72;5056600;28;20285;-65
2023/04/20 03:48:27;;;;;;;;;;;;;;;-144.99;84.30;52313.56;5050489;28;19975;-62
2023/04/20 03:50:54;;;;;;;;;;;;;;;-144.99;85.60;52321.72;5062667;28;20034;-65
2023/04/20 03:53:20;;;;;;;;;;;;;;;-144.99;85.49;52321.72;5067839;28;20280;-64
2023/04/20 03:55:47;;;;;;;;;;;;;;;-144.99;85.81;52317.66;5049074;28;19933;-64
2023/04/20 03:58:15;;;;;;;;;;;;;;;-144.99;86.60;52342.09;5052235;28;20247;-66
2023/04/20 04:00:41;;;;;;;;;;;;;;;-144.99;86.98;52315.59;5058136;28;19925;-64
2023/04/20 04:03:08;;;;;;;;;;;;;;;-144.99;87.30;52317.66;5056873;28;19974;-66
2023/04/20 04:05:35;;;;;;;;;;;;;;;-144.99;87.57;52309.50;5053746;28;19929;-65
2023/04/20 04:08:01;;;;;;;;;;;;;;;-144.99;89.17;52333.94;5061335;28;19994;-62
2023/04/20 04:10:28;;;;;;;;;;;;;;;-144.99;88.36;52325.81;5052707;28;19936;-62
2023/04/20 04:12:54;;;;;;;;;;;;;;;-144.99;88.16;52325.81;5047996;28;19978;-67
2023/04/20 04:15:22;;;;;;;;;;;;;;;-144.99;89.37;52280.97;5053297;28;19925;-66
2023/04/20 04:17:49;;;;;;;;;;;;;;;-144.99;89.35;52350.25;5059957;28;20005;-68
2023/04/20 04:20:15;;;;;;;;;;;;;;;-144.99;89.17;52313.56;5052217;28;20345;-60
2023/04/20 04:22:43;;;;;;;;;;;;;;;-144.99;90.30;52299.31;5054679;28;19925;-63
2023/04/20 04:25:10;;;;;;;;;;;;;;;-144.99;90.58;52317.66;5049437;28;20029;-62
2023/04/20 04:27:38;;;;;;;;;;;;;;;-144.99;91.16;52301.34;5059047;28;20002;-65
2023/04/20 04:30:06;;;;;;;;;;;;;;;-144.99;92.46;52321.72;5055175;28;19940;-62
2023/04/20 04:32:34;;;;;;;;;;;;;;;-144.99;92.35;52317.66;5055905;28;19932;-62
2023/04/20 04:35:01;;;;;;;;;;;;;;;-144.99;92.79;52340.06;5058972;28;20011;-63
2023/04/20 04:37:28;;;;;;;;;;;;;;;-144.99;91.68;52289.13;5056035;28;19928;-63
2023/04/20 04:39:56;;;;;;;;;;;;;;;-144.99;91.60;52297.25;5057013;28;19972;-63
2023/04/20 04:42:23;;;;;;;;;;;;;;;-144.99;91.95;52331.91;5049136;28;19951;-63
2023/04/20 04:44:51;;;;;;;;;;;;;;;-144.99;93.12;52338.03;5047587;28;19924;-64
2023/04/20 04:47:18;;;;;;;;;;;;;;;-144.99;92.98;52303.38;5061218;28;19997;-63
2023/04/20 04:49:46;;;;;;;;;;;;;;;-144.99;92.15;52325.81;5057943;28;20337;-62
2023/04/20 04:52:13;;;;;;;;;;;;;;;-144.99;90.81;52272.81;5059677;28;19971;-63
2023/04/20 04:54:40;;;;;;;;;;;;;;;-144.99;90.91;52301.34;5064146;28;20373;-62
2023/04/20 04:57:06;;;;;;;;;;;;;;;-144.99;91.18;52321.72;5054418;28;19990;-63
2023/04/20 04:59:33;;;;;;;;;;;;;;;-144.99;91.00;52317.66;5048965;28;19991;-65
2023/04/20 05:01:59;;;;;;;;;;;;;;;-144.99;91.58;52285.03;5048230;28;19932;-66
2023/04/20 05:04:26;;;;;;;;;;;;;;;-144.99;91.27;52260.56;5049992;28;19936;-67
2023/04/20 05:06:54;;;;;;;;;;;;;;;-144.99;91.45;52262.63;5056584;28;20001;-66
2023/04/20 05:09:20;;;;;;;;;;;;;;;-144.99;91.50;52358.41;5047595;28;19956;-64
2023/04/20 05:11:47;;;;;;;;;;;;;;;-144.99;93.85;52301.34;5051899;28;20030;-67
2023/04/20 05:14:14;;;;;;;;;;;;;;;-144.99;91.96;52309.50;5047772;28;19957;-66
2023/04/20 05:16:40;;;;;;;;;;;;;;;-144.99;91.63;52321.72;5055813;28;19932;-65
2023/04/20 05:19:07;;;;;;;;;;;;;;;-144.99;91.16;52293.19;5056020;28;20066;-63
2023/04/20 05:21:33;;;;;;;;;;;;;;;-144.99;91.63;52305.41;5047369;28;19932;-66
2023/04/20 05:24:01;;;;;;;;;;;;;;;-144.99;91.69;52299.31;5055056;28;20448;-65
2023/04/20 05:26:28;;;;;;;;;;;;;;;-144.99;91.59;52344.16;5056434;28;20432;-64
2023/04/20 05:28:54;;;;;;;;;;;;;;;-144.99;91.33;52293.19;5056738;28;19960;-66
2023/04/20 05:31:27;;;;;;;;;;;;;;;-144.99;91.46;52305.41;4590284;28;10000815;-67
2023/04/20 05:33:54;;;;;;;;;;;;;;;-144.99;92.49;52338.03;5051083;28;19929;-67
2023/04/20 05:36:20;;;;;;;;;;;;;;;-144.99;92.51;52289.13;5054016;28;19925;-67
2023/04/20 05:38:47;;;;;;;;;;;;;;;-144.99;93.81;52317.66;5060256;28;19940;-67
2023/04/20 05:41:15;;;;;;;;;;;;;;;-144.99;93.64;52325.81;5056575;28;20036;-67
2023/04/20 05:43:41;;;;;;;;;;;;;;;-144.99;94.01;52307.47;5062170;28;20021;-67
2023/04/20 05:46:08;;;;;;;;;;;;;;;-144.99;93.66;52313.56;5057085;28;20399;-67
2023/04/20 05:48:35;;;;;;;;;;;;;;;-144.99;92.92;52289.13;5057193;28;19933;-67
2023/04/20 05:51:01;;;;;;;;;;;;;;;-144.99;93.03;52268.72;5064860;28;20023;-67
2023/04/20 05:53:28;;;;;;;;;;;;;;;-144.99;93.28;52313.56;5055038;28;19990;-67
2023/04/20 05:55:54;;;;;;;;;;;;;;;-144.99;93.19;52309.50;5057303;28;19936;-67
2023/04/20 05:58:22;;;;;;;;;;;;;;;-144.99;93.89;52321.72;5049717;28;19932;-67
2023/04/20 06:00:49;;;;;;;;;;;;;;;-144.99;93.97;52289.13;5048040;28;19984;-67
2023/04/20 06:03:15;;;;;;;;;;;;;;;-144.99;95.17;52303.38;5060373;28;20380;-69
2023/04/20 06:05:42;;;;;;;;;;;;;;;-144.99;94.70;52293.19;5063903;28;20058;-67
2023/04/20 06:08:08;;;;;;;;;;;;;;;-144.99;95.09;52325.81;5049889;28;19928;-67
2023/04/20 06:10:35;;;;;;;;;;;;;;;-144.99;94.86;52305.41;5049151;28;20459;-67
2023/04/20 06:13:01;;;;;;;;;;;;;;;-144.99;95.11;52305.41;5053220;28;19936;-66
2023/04/20 06:15:29;;;;;;;;;;;;;;;-144.99;95.20;52305.41;5052961;28;20027;-67
2023/04/20 06:17:56;;;;;;;;;;;;;;;-144.99;95.71;52260.56;5049998;28;20025;-67
2023/04/20 06:20:22;;;;;;;;;;;;;;;-144.99;94.96;52309.50;5047652;28;19968;-66
2023/04/20 06:22:49;;;;;;;;;;;;;;;-144.99;94.87;52268.72;5052960;28;20071;-67
2023/04/20 06:25:16;;;;;;;;;;;;;;;-144.99;94.89;52272.81;5047084;28;19940;-66
2023/04/20 06:27:42;;;;;;;;;;;;;;;-144.99;95.07;52309.50;5054914;28;19929;-65
2023/04/20 06:30:09;;;;;;;;;;;;;;;-144.99;95.17;52313.56;5050741;28;19985;-68
2023/04/20 06:32:37;;;;;;;;;;;;;;;-144.99;95.18;52283.00;5058230;28;19932;-68
2023/04/20 06:35:04;;;;;;;;;;;;;;;-144.99;95.70;52317.66;5046980;28;19960;-68
2023/04/20 06:37:30;;;;;;;;;;;;;;;-144.99;96.33;52325.81;5053563;28;19928;-68
2023/04/20 06:39:57;;;;;;;;;;;;;;;-144.99;96.87;52266.69;5064310;28;19928;-68
2023/04/20 06:42:23;;;;;;;;;;;;;;;-144.99;98.33;52338.03;5047906;28;19929;-70
2023/04/20 06:44:50;;;;;;;;;;;;;;;-144.99;97.12;52285.03;5054713;28;19958;-68
2023/04/20 06:47:17;;;;;;;;;;;;;;;-144.99;97.20;52289.13;5061741;28;19963;-67
2023/04/20 06:49:44;;;;;;;;;;;;;;;-144.99;97.76;52309.50;5050483;28;20026;-69
2023/04/20 06:52:11;;;;;;;;;;;;;;;-144.99;97.89;52297.25;5052681;28;19972;-67
2023/04/20 06:54:37;;;;;;;;;;;;;;;-144.99;97.84;52293.19;5060319;28;20354;-68
2023/04/20 06:57:04;;;;;;;;;;;;;;;-144.99;98.23;52285.03;5049836;28;19967;-67
2023/04/20 06:59:30;;;;;;;;;;;;;;;-144.99;98.72;52268.72;5054822;28;19982;-68
2023/04/20 07:01:57;;;;;;;;;;;;;;;-144.99;100.00;52301.34;4701900;28;9999698;-68
2023/04/20 07:04:24;;;;;;;;;;;;;;;-144.99;98.37;52297.25;5060867;28;20023;-68
2023/04/20 07:06:51;;;;;;;;;;;;;;;-144.99;98.07;52311.53;5063616;28;20019;-68
2023/04/20 07:09:18;;;;;;;;;;;;;;;-144.99;99.72;52289.13;5054022;28;19955;-67
2023/04/20 07:11:45;;;;;;;;;;;;;;;-144.99;98.11;52293.19;5049169;28;19924;-67
2023/04/20 07:14:11;;;;;;;;;;;;;;;-144.99;98.20;52289.13;5063800;28;20378;-67
2023/04/20 07:16:38;;;;;;;;;;;;;;;-144.99;98.01;52297.25;5049397;28;20034;-66
2023/04/20 07:19:05;;;;;;;;;;;;;;;-144.99;97.99;52264.66;4704018;28;9999807;-68
2023/04/20 07:21:32;;;;;;;;;;;;;;;-144.99;98.49;52289.13;5047175;28;19925;-67
2023/04/20 07:23:59;;;;;;;;;;;;;;;-144.99;98.51;52301.34;5056864;28;19975;-67
2023/04/20 07:26:26;;;;;;;;;;;;;;;-144.99;98.18;52289.13;5050348;28;21098;-68
2023/04/20 07:28:53;;;;;;;;;;;;;;;-144.99;98.53;52285.03;5049902;28;20370;-67
2023/04/20 07:31:19;;;;;;;;;;;;;;;-144.99;99.07;52278.91;5052143;28;19971;-68
2023/04/20 07:33:46;;;;;;;;;;;;;;;-144.99;99.37;52301.34;5055039;28;20146;-67
2023/04/20 07:36:12;;;;;;;;;;;;;;;-144.99;98.69;52297.25;5059283;28;19996;-68
2023/04/20 07:38:39;;;;;;;;;;;;;;;-144.99;98.62;52313.56;5060046;28;19929;-68
2023/04/20 07:41:09;;;;;;;;;;;;;;;-144.99;98.81;52260.56;5045986;28;20002;-68
2023/04/20 07:43:36;;;;;;;;;;;;;;;-144.99;98.89;52293.19;5050503;28;20482;-68
2023/04/20 07:46:03;;;;;;;;;;;;;;;-144.99;98.41;52252.44;5053657;28;19936;-68
2023/04/20 07:48:29;;;;;;;;;;;;;;;-144.99;98.37;52272.81;5055555;28;19936;-68
2023/04/20 07:50:56;;;;;;;;;;;;;;;-144.99;98.88;52293.19;5051857;28;20019;-68
2023/04/20 07:53:22;;;;;;;;;;;;;;;-144.99;98.45;52256.50;5050971;28;19963;-68
2023/04/20 07:55:49;;;;;;;;;;;;;;;-144.99;98.22;52248.34;5049745;28;19978;-68
2023/04/20 07:58:17;;;;;;;;;;;;;;;-144.99;97.80;52321.72;5050636;28;19925;-69
2023/04/20 08:00:45;;;;;;;;;;;;;;;-144.99;98.30;52283.00;5048007;28;19925;-68
2023/04/20 08:03:11;;;;;;;;;;;;;;;-144.99;98.54;52270.78;5058051;28;19924;-69
2023/04/20 08:05:39;;;;;;;;;;;;;;;-144.99;99.15;52285.03;5057276;28;19928;-68
2023/04/20 08:08:06;;;;;;;;;;;;;;;-144.99;99.08;52325.81;5054152;28;19925;-68
2023/04/20 08:10:32;;;;;;;;;;;;;;;-144.99;100.00;52289.13;5049996;28;19928;-68
2023/04/20 08:12:59;;;;;;;;;;;;;;;-144.99;100.00;52276.88;5049272;28;19932;-68
2023/04/20 08:15:27;;;;;;;;;;;;;;;-144.99;99.47;52264.66;5051835;28;19929;-68
2023/04/20 08:17:53;;;;;;;;;;;;;;;-144.99;99.13;52276.88;5046141;28;20286;-68
2023/04/20 08:20:20;;;;;;;;;;;;;;;-144.99;99.17;52272.81;5050484;28;19963;-68
2023/04/20 08:22:48;;;;;;;;;;;;;;;-144.99;99.19;52248.34;5057548;28;19990;-68
2023/04/20 08:25:14;;;;;;;;;;;;;;;-144.99;98.67;52299.31;5053063;28;20019;-68
2023/04/20 08:27:41;;;;;;;;;;;;;;;-144.99;98.51;52264.66;5052330;28;19994;-68
2023/04/20 08:30:08;;;;;;;;;;;;;;;-144.99;98.47;52268.72;5045034;28;20361;-68
2023/04/20 08:32:36;;;;;;;;;;;;;;;-144.99;98.48;52309.50;5050320;28;20002;-68
2023/04/20 08:35:03;;;;;;;;;;;;;;;-144.99;98.62;52280.97;5053620;28;19932;-68
2023/04/20 08:37:29;;;;;;;;;;;;;;;-144.99;98.94;52293.19;5056589;28;20222;-68
2023/04/20 08:39:56;;;;;;;;;;;;;;;-144.99;99.06;52268.72;5054804;28;19956;-69
2023/04/20 08:42:22;;;;;;;;;;;;;;;-144.99;99.37;52325.81;5050530;28;19925;-68
2023/04/20 08:44:49;;;;;;;;;;;;;;;-144.99;98.83;52309.50;5056518;28;19971;-68
2023/04/20 08:47:15;;;;;;;;;;;;;;;-144.99;99.21;52313.56;5055761;28;19989;-69
2023/04/20 08:49:44;;;;;;;;;;;;;;;-144.99;99.64;52264.66;5056402;28;19932;-69
2023/04/20 08:52:11;;;;;;;;;;;;;;;-144.99;99.60;52272.81;5056184;28;20021;-69
2023/04/20 08:54:38;;;;;;;;;;;;;;;-144.99;100.00;52295.22;5047476;28;19932;-69
2023/04/20 08:57:04;;;;;;;;;;;;;;;-144.99;100.00;52293.19;5052984;28;20423;-68
2023/04/20 08:59:31;;;;;;;;;;;;;;;-144.99;100.00;52350.25;5054146;28;19925;-68
2023/04/20 09:02:08;;;;;;;;;;;;;;;-144.99;100.00;52329.88;5052888;28;19990;-68
2023/04/20 09:04:34;;;;;;;;;;;;;;;-144.99;100.00;52301.34;5053660;28;20453;-69
2023/04/20 09:07:02;;;;;;;;;;;;;;;-144.99;100.00;52309.50;5059770;28;19947;-69
2023/04/20 09:09:29;;;;;;;;;;;;;;;-144.99;100.00;52280.97;5052469;28;19987;-68
2023/04/20 09:12:02;;;;;;;;;;;;;;;-144.99;100.00;52299.31;5057678;28;19925;-68
2023/04/20 09:14:29;;;;;;;;;;;;;;;-144.99;100.00;52254.47;5054753;28;20019;-68
2023/04/20 09:17:00;;;;;;;;;;;;;;;-144.99;100.00;52289.13;5064125;28;20010;-68
2023/04/20 09:19:27;;;;;;;;;;;;;;;-144.99;100.00;52268.72;5055584;28;20209;-69
2023/04/20 09:21:55;;;;;;;;;;;;;;;-144.99;100.00;52252.44;5051971;28;19960;-69
2023/04/20 09:24:24;;;;;;;;;;;;;;;-144.99;100.00;52264.66;5050001;28;19932;-69
2023/04/20 09:26:50;;;;;;;;;;;;;;;-144.99;100.00;52268.72;5048946;28;19925;-69
2023/04/20 09:29:17;;;;;;;;;;;;;;;-144.99;100.00;52287.06;5054188;28;19967;-69
2023/04/20 09:31:44;;;;;;;;;;;;;;;-144.99;100.00;52260.56;5052171;28;20008;-69
2023/04/20 09:34:10;;;;;;;;;;;;;;;-144.99;100.00;52248.34;5050772;28;20405;-68
2023/04/20 09:36:38;;;;;;;;;;;;;;;-144.99;98.86;52207.59;5060155;28;19985;-68
2023/04/20 09:39:06;;;;;;;;;;;;;;;-144.99;100.00;52225.94;5062228;28;19967;-68
2023/04/20 09:41:34;;;;;;;;;;;;;;;-144.99;97.10;52207.59;5054490;28;19983;-69
2023/04/20 09:44:01;;;;;;;;;;;;;;;-144.99;94.53;52252.44;5059217;28;19970;-69
2023/04/20 09:46:28;;;;;;;;;;;;;;;-144.99;93.03;52248.34;5051549;28;19972;-68
2023/04/20 09:48:56;;;;;;;;;;;;;;;-144.99;92.68;52252.44;5059795;28;19928;-69
2023/04/20 09:51:22;;;;;;;;;;;;;;;-144.99;92.12;52234.09;5047860;28;19928;-69
2023/04/20 09:53:49;;;;;;;;;;;;;;;-144.99;92.85;52293.19;5048755;28;20132;-68
2023/04/20 09:56:17;;;;;;;;;;;;;;;-144.99;92.82;52236.13;5059973;28;19935;-69
2023/04/20 09:58:45;;;;;;;;;;;;;;;-144.99;93.22;52211.66;5069680;28;19935;-69
2023/04/20 10:01:12;;;;;;;;;;;;;;;-144.99;92.48;52283.00;5058718;28;19952;-68
2023/04/20 10:03:41;;;;;;;;;;;;;;;-144.99;93.21;52227.97;5056149;28;19993;-68
2023/04/20 10:06:17;;;;;;;;;;;;;;;-144.99;93.54;52262.63;5055392;28;19929;-68
2023/04/20 10:08:44;;;;;;;;;;;;;;;-144.99;93.44;52264.66;5056826;28;19959;-69
2023/04/20 10:11:11;;;;;;;;;;;;;;;-144.99;93.43;52256.50;5056448;28;19959;-68
2023/04/20 10:13:37;;;;;;;;;;;;;;;-144.99;93.68;52272.81;5052994;28;20346;-68
2023/04/20 10:16:17;;;;;;;;;;;;;;;-144.99;94.67;52260.56;5052934;28;20033;-69
2023/04/20 10:18:43;;;;;;;;;;;;;;;-144.99;95.38;52217.78;5054420;28;19990;-68
2023/04/20 10:21:10;;;;;;;;;;;;;;;-144.99;95.17;52232.03;5053686;28;20447;-69
2023/04/20 10:23:46;;;;;;;;;;;;;;;-144.99;95.42;52268.72;5052185;28;19932;-69
2023/04/20 10:26:13;;;;;;;;;;;;;;;-144.99;95.77;52246.31;5047871;28;19928;-69
2023/04/20 10:28:40;;;;;;;;;;;;;;;-144.99;95.13;52195.34;5055587;28;20443;-69
2023/04/20 10:31:11;;;;;;;;;;;;;;;-144.99;93.60;52256.50;5047029;28;20007;-70
2023/04/20 10:33:48;;;;;;;;;;;;;;;-144.99;93.03;52117.91;5053005;28;19928;-70
2023/04/20 10:36:22;;;;;;;;;;;;;;;-144.99;89.92;52172.94;5051267;28;19929;-70
2023/04/20 10:38:48;;;;;;;;;;;;;;;-144.99;87.11;52207.59;5060007;28;19976;-70
2023/04/20 10:41:15;;;;;;;;;;;;;;;-144.99;86.86;52240.19;5056201;28;19932;-69
2023/04/20 10:43:42;;;;;;;;;;;;;;;-144.99;86.24;52227.97;5047598;28;19933;-70
2023/04/20 10:46:20;;;;;;;;;;;;;;;-144.99;85.77;52207.59;5059171;28;19936;-69
2023/04/20 10:48:51;;;;;;;;;;;;;;;-144.99;86.37;52227.97;5060159;28;20456;-70
2023/04/20 10:51:17;;;;;;;;;;;;;;;-144.99;87.66;52223.88;5055531;28;19963;-69
2023/04/20 10:53:44;;;;;;;;;;;;;;;-144.99;88.16;52240.19;5049724;28;19964;-69
2023/04/20 10:56:11;;;;;;;;;;;;;;;-144.99;88.87;52252.44;5051989;28;20414;-69
2023/04/20 10:58:39;;;;;;;;;;;;;;;-144.99;88.97;52256.50;5050178;28;19971;-70
2023/04/20 11:01:05;;;;;;;;;;;;;;;-144.99;90.25;52240.19;5049893;28;19924;-69
2023/04/20 11:03:34;;;;;;;;;;;;;;;-144.99;90.20;52240.19;5045161;28;19932;-69
2023/04/20 11:06:02;;;;;;;;;;;;;;;-144.99;90.42;52254.47;5049216;28;19941;-69
2023/04/20 11:08:39;;;;;;;;;;;;;;;-144.99;90.45;52219.81;5048415;28;19928;-68
2023/04/20 11:11:06;;;;;;;;;;;;;;;-144.99;90.41;52236.13;5051391;28;19975;-69
2023/04/20 11:13:33;;;;;;;;;;;;;;;-144.99;90.30;52248.34;5047062;28;19960;-68
2023/04/20 11:16:00;;;;;;;;;;;;;;;-144.99;90.52;52248.34;5048949;28;19944;-68
2023/04/20 11:18:29;;;;;;;;;;;;;;;-144.99;90.49;52252.44;5056201;28;19924;-68
2023/04/20 11:20:56;;;;;;;;;;;;;;;-144.99;90.47;52276.88;5050142;28;20058;-68
2023/04/20 11:23:24;;;;;;;;;;;;;;;-144.99;90.16;52256.50;5057271;28;19929;-68
2023/04/20 11:25:54;;;;;;;;;;;;;;;-144.99;90.15;52225.94;5046016;28;20027;-68
2023/04/20 11:28:21;;;;;;;;;;;;;;;-144.99;90.03;52240.19;5055982;28;20365;-68
2023/04/20 11:30:48;;;;;;;;;;;;;;;-144.99;89.74;52244.28;5059188;28;20033;-69
2023/04/20 11:33:16;;;;;;;;;;;;;;;-144.99;88.79;52256.50;5052011;28;19928;-68
2023/04/20 11:35:43;;;;;;;;;;;;;;;-144.99;88.47;52232.03;5051133;28;19936;-69
2023/04/20 11:38:11;;;;;;;;;;;;;;;-144.99;88.07;52272.81;5057068;28;20466;-68
2023/04/20 11:40:38;;;;;;;;;;;;;;;-144.99;87.16;52207.59;5051805;28;20384;-69
2023/04/20 11:43:04;;;;;;;;;;;;;;;-144.99;86.49;52203.50;5064140;28;19924;-68
2023/04/20 11:45:32;;;;;;;;;;;;;;;-144.99;85.88;52227.97;5052918;28;20033;-68
2023/04/20 11:47:58;;;;;;;;;;;;;;;-144.99;85.98;52207.59;5049762;28;19933;-68
2023/04/20 11:50:25;;;;;;;;;;;;;;;-144.99;85.74;52223.88;5059667;28;20301;-68
2023/04/20 11:52:52;;;;;;;;;;;;;;;-144.99;86.03;52250.38;5058495;28;20359;-68
2023/04/20 11:55:20;;;;;;;;;;;;;;;-144.99;86.51;52254.47;5054955;28;20006;-68
2023/04/20 11:57:46;;;;;;;;;;;;;;;-144.99;86.76;52248.34;5049520;28;19991;-68
2023/04/20 12:00:13;;;;;;;;;;;;;;;-144.99;87.52;52207.59;5052656;28;19960;-68
2023/04/20 12:02:40;;;;;;;;;;;;;;;-144.99;87.71;52260.56;5050295;28;19936;-68
2023/04/20 12:05:07;;;;;;;;;;;;;;;-144.99;87.41;52268.72;5054986;28;19982;-68
2023/04/20 12:07:33;;;;;;;;;;;;;;;-144.99;87.99;52256.50;5054264;28;19931;-68
2023/04/20 12:10:00;;;;;;;;;;;;;;;-144.99;87.95;52278.91;5060916;28;20672;-68
2023/04/20 12:12:28;;;;;;;;;;;;;;;-144.99;88.02;52236.13;5056130;28;20013;-68
2023/04/20 12:14:54;;;;;;;;;;;;;;;-144.99;88.83;52221.84;5054065;28;20416;-69
2023/04/20 12:17:21;;;;;;;;;;;;;;;-144.99;89.15;52260.56;5062618;28;20017;-68
2023/04/20 12:19:47;;;;;;;;;;;;;;;-144.99;89.13;52219.81;5046747;28;20338;-69
2023/04/20 12:22:14;;;;;;;;;;;;;;;-144.99;89.65;52252.44;5049735;28;19924;-68
2023/04/20 12:24:40;;;;;;;;;;;;;;;-144.99;90.11;52276.88;5051577;28;20503;-61